sensor_id;sensor_type;location;lat;lon;timestamp;P1;durP1;ratioP1;P2;durP2;ratioP2
62423;SDS011;48463;43.604;3.872;2023-04-23T00:01:57;14.73;;;10.80;;
62423;SDS011;48463;43.604;3.872;2023-04-23T00:04:24;14.18;;;10.55;;
62423;SDS011;48463;43.604;3.872;2023-04-23T00:06:50;12.73;;;10.50;;
62423;SDS011;48463;43.604;3.872;2023-04-23T00:09:16;11.35;;;10.15;;
62423;SDS011;48463;43.604;3.872;2023-04-23T00:11:43;10.90;;;9.55;;
62423;SDS011;48463;43.604;3.872;2023-04-23T00:14:09;12.30;;;9.68;;
62423;SDS011;48463;43.604;3.872;2023-04-23T00:16:36;13.55;;;10.63;;
62423;SDS011;48463;43.604;3.872;2023-04-23T00:19:02;12.80;;;9.80;;
62423;SDS011;48463;43.604;3.872;2023-04-23T00:21:28;9.45;;;8.23;;
62423;SDS011;48463;43.604;3.872;2023-04-23T00:23:54;11.18;;;8.60;;
62423;SDS011;48463;43.604;3.872;2023-04-23T00:26:19;11.52;;;10.27;;
62423;SDS011;48463;43.604;3.872;2023-04-23T00:28:45;11.68;;;9.20;;
62423;SDS011;48463;43.604;3.872;2023-04-23T00:31:11;13.85;;;8.90;;
62423;SDS011;48463;43.604;3.872;2023-04-23T00:33:36;11.95;;;8.45;;
62423;SDS011;48463;43.604;3.872;2023-04-23T00:36:02;11.93;;;9.68;;
62423;SDS011;48463;43.604;3.872;2023-04-23T00:38:28;13.82;;;8.95;;
62423;SDS011;48463;43.604;3.872;2023-04-23T00:40:54;12.48;;;9.23;;
62423;SDS011;48463;43.604;3.872;2023-04-23T00:43:19;13.25;;;9.40;;
62423;SDS011;48463;43.604;3.872;2023-04-23T00:45:46;14.07;;;9.45;;
62423;SDS011;48463;43.604;3.872;2023-04-23T00:48:11;14.23;;;9.85;;
62423;SDS011;48463;43.604;3.872;2023-04-23T00:50:38;12.98;;;8.55;;
62423;SDS011;48463;43.604;3.872;2023-04-23T00:53:03;10.50;;;9.27;;
62423;SDS011;48463;43.604;3.872;2023-04-23T00:55:29;12.82;;;10.27;;
62423;SDS011;48463;43.604;3.872;2023-04-23T00:57:55;12.13;;;9.80;;
62423;SDS011;48463;43.604;3.872;2023-04-23T01:00:21;20.23;;;9.50;;
62423;SDS011;48463;43.604;3.872;2023-04-23T01:02:47;11.80;;;10.15;;
62423;SDS011;48463;43.604;3.872;2023-04-23T01:05:14;13.63;;;9.55;;
62423;SDS011;48463;43.604;3.872;2023-04-23T01:07:41;16.88;;;10.15;;
62423;SDS011;48463;43.604;3.872;2023-04-23T01:10:08;13.05;;;10.00;;
62423;SDS011;48463;43.604;3.872;2023-04-23T01:12:35;16.98;;;9.90;;
62423;SDS011;48463;43.604;3.872;2023-04-23T01:15:01;15.15;;;10.88;;
62423;SDS011;48463;43.604;3.872;2023-04-23T01:17:27;10.52;;;9.32;;
62423;SDS011;48463;43.604;3.872;2023-04-23T01:19:53;12.02;;;9.68;;
62423;SDS011;48463;43.604;3.872;2023-04-23T01:22:19;12.27;;;9.70;;
62423;SDS011;48463;43.604;3.872;2023-04-23T01:24:45;11.93;;;9.18;;
62423;SDS011;48463;43.604;3.872;2023-04-23T01:27:12;12.38;;;10.02;;
62423;SDS011;48463;43.604;3.872;2023-04-23T01:29:38;17.15;;;9.73;;
62423;SDS011;48463;43.604;3.872;2023-04-23T01:32:04;12.68;;;11.00;;
62423;SDS011;48463;43.604;3.872;2023-04-23T01:34:31;19.38;;;10.00;;
62423;SDS011;48463;43.604;3.872;2023-04-23T01:36:58;13.27;;;9.90;;
62423;SDS011;48463;43.604;3.872;2023-04-23T01:39:24;11.23;;;9.85;;
62423;SDS011;48463;43.604;3.872;2023-04-23T01:41:50;12.20;;;10.60;;
62423;SDS011;48463;43.604;3.872;2023-04-23T01:44:17;10.05;;;9.10;;
62423;SDS011;48463;43.604;3.872;2023-04-23T01:46:43;12.30;;;10.27;;
62423;SDS011;48463;43.604;3.872;2023-04-23T01:49:09;15.80;;;10.57;;
62423;SDS011;48463;43.604;3.872;2023-04-23T01:51:35;13.32;;;10.10;;
62423;SDS011;48463;43.604;3.872;2023-04-23T01:54:00;12.00;;;10.50;;
62423;SDS011;48463;43.604;3.872;2023-04-23T01:56:26;11.10;;;9.60;;
62423;SDS011;48463;43.604;3.872;2023-04-23T01:58:53;12.60;;;10.13;;
62423;SDS011;48463;43.604;3.872;2023-04-23T02:01:18;13.10;;;10.32;;
62423;SDS011;48463;43.604;3.872;2023-04-23T02:03:44;12.43;;;10.25;;
62423;SDS011;48463;43.604;3.872;2023-04-23T02:06:11;10.73;;;9.38;;
62423;SDS011;48463;43.604;3.872;2023-04-23T02:08:37;15.98;;;9.93;;
62423;SDS011;48463;43.604;3.872;2023-04-23T02:11:04;13.02;;;10.02;;
62423;SDS011;48463;43.604;3.872;2023-04-23T02:13:30;12.15;;;8.73;;
62423;SDS011;48463;43.604;3.872;2023-04-23T02:15:56;13.68;;;9.13;;
62423;SDS011;48463;43.604;3.872;2023-04-23T02:18:22;11.15;;;9.77;;
62423;SDS011;48463;43.604;3.872;2023-04-23T02:20:47;9.38;;;8.38;;
62423;SDS011;48463;43.604;3.872;2023-04-23T02:23:13;13.07;;;8.85;;
62423;SDS011;48463;43.604;3.872;2023-04-23T02:25:39;12.43;;;10.05;;
62423;SDS011;48463;43.604;3.872;2023-04-23T02:28:05;9.82;;;8.82;;
62423;SDS011;48463;43.604;3.872;2023-04-23T02:30:32;9.90;;;8.50;;
62423;SDS011;48463;43.604;3.872;2023-04-23T02:32:58;11.20;;;9.40;;
62423;SDS011;48463;43.604;3.872;2023-04-23T02:35:24;11.20;;;10.10;;
62423;SDS011;48463;43.604;3.872;2023-04-23T02:37:50;10.52;;;9.27;;
62423;SDS011;48463;43.604;3.872;2023-04-23T02:40:18;12.73;;;9.52;;
62423;SDS011;48463;43.604;3.872;2023-04-23T02:42:44;12.73;;;9.50;;
62423;SDS011;48463;43.604;3.872;2023-04-23T02:45:10;12.98;;;9.60;;
62423;SDS011;48463;43.604;3.872;2023-04-23T02:47:36;13.05;;;9.75;;
62423;SDS011;48463;43.604;3.872;2023-04-23T02:50:02;11.23;;;10.02;;
62423;SDS011;48463;43.604;3.872;2023-04-23T02:52:30;11.73;;;8.80;;
62423;SDS011;48463;43.604;3.872;2023-04-23T02:54:56;13.38;;;8.70;;
62423;SDS011;48463;43.604;3.872;2023-04-23T02:57:22;9.63;;;8.63;;
62423;SDS011;48463;43.604;3.872;2023-04-23T02:59:48;17.00;;;9.15;;
62423;SDS011;48463;43.604;3.872;2023-04-23T03:02:14;10.30;;;8.60;;
62423;SDS011;48463;43.604;3.872;2023-04-23T03:04:40;10.02;;;8.23;;
62423;SDS011;48463;43.604;3.872;2023-04-23T03:07:06;14.25;;;9.25;;
62423;SDS011;48463;43.604;3.872;2023-04-23T03:09:31;10.52;;;8.70;;
62423;SDS011;48463;43.604;3.872;2023-04-23T03:11:57;10.15;;;8.52;;
62423;SDS011;48463;43.604;3.872;2023-04-23T03:14:23;13.15;;;8.57;;
62423;SDS011;48463;43.604;3.872;2023-04-23T03:16:48;12.75;;;9.27;;
62423;SDS011;48463;43.604;3.872;2023-04-23T03:19:14;10.75;;;7.93;;
62423;SDS011;48463;43.604;3.872;2023-04-23T03:21:40;10.32;;;8.80;;
62423;SDS011;48463;43.604;3.872;2023-04-23T03:24:06;10.13;;;8.48;;
62423;SDS011;48463;43.604;3.872;2023-04-23T03:26:31;11.48;;;9.70;;
62423;SDS011;48463;43.604;3.872;2023-04-23T03:28:58;9.32;;;7.82;;
62423;SDS011;48463;43.604;3.872;2023-04-23T03:31:24;7.97;;;7.13;;
62423;SDS011;48463;43.604;3.872;2023-04-23T03:33:50;9.90;;;8.52;;
62423;SDS011;48463;43.604;3.872;2023-04-23T03:36:15;9.85;;;8.68;;
62423;SDS011;48463;43.604;3.872;2023-04-23T03:38:42;11.75;;;7.70;;
62423;SDS011;48463;43.604;3.872;2023-04-23T03:41:07;8.70;;;7.60;;
62423;SDS011;48463;43.604;3.872;2023-04-23T03:43:33;12.57;;;8.48;;
62423;SDS011;48463;43.604;3.872;2023-04-23T03:45:58;12.57;;;8.20;;
62423;SDS011;48463;43.604;3.872;2023-04-23T03:48:24;8.93;;;7.30;;
62423;SDS011;48463;43.604;3.872;2023-04-23T03:50:50;9.05;;;7.93;;
62423;SDS011;48463;43.604;3.872;2023-04-23T03:53:15;8.88;;;7.60;;
62423;SDS011;48463;43.604;3.872;2023-04-23T03:55:41;11.35;;;8.38;;
62423;SDS011;48463;43.604;3.872;2023-04-23T03:58:08;8.10;;;7.30;;
62423;SDS011;48463;43.604;3.872;2023-04-23T04:00:33;10.10;;;7.20;;
62423;SDS011;48463;43.604;3.872;2023-04-23T04:02:59;9.50;;;7.88;;
62423;SDS011;48463;43.604;3.872;2023-04-23T04:05:26;10.15;;;7.85;;
62423;SDS011;48463;43.604;3.872;2023-04-23T04:07:52;9.43;;;7.93;;
62423;SDS011;48463;43.604;3.872;2023-04-23T04:10:18;7.90;;;7.10;;
62423;SDS011;48463;43.604;3.872;2023-04-23T04:12:44;12.07;;;7.65;;
62423;SDS011;48463;43.604;3.872;2023-04-23T04:15:12;9.77;;;8.77;;
62423;SDS011;48463;43.604;3.872;2023-04-23T04:17:38;10.88;;;7.28;;
62423;SDS011;48463;43.604;3.872;2023-04-23T04:20:05;9.70;;;7.07;;
62423;SDS011;48463;43.604;3.872;2023-04-23T04:22:32;8.77;;;7.75;;
62423;SDS011;48463;43.604;3.872;2023-04-23T04:24:58;7.38;;;6.50;;
62423;SDS011;48463;43.604;3.872;2023-04-23T04:27:24;8.32;;;7.05;;
62423;SDS011;48463;43.604;3.872;2023-04-23T04:29:49;11.48;;;7.40;;
62423;SDS011;48463;43.604;3.872;2023-04-23T04:32:15;9.65;;;7.35;;
62423;SDS011;48463;43.604;3.872;2023-04-23T04:34:41;9.38;;;8.00;;
62423;SDS011;48463;43.604;3.872;2023-04-23T04:37:07;10.90;;;5.90;;
62423;SDS011;48463;43.604;3.872;2023-04-23T04:39:35;8.82;;;5.28;;
62423;SDS011;48463;43.604;3.872;2023-04-23T04:42:01;7.80;;;5.90;;
62423;SDS011;48463;43.604;3.872;2023-04-23T04:44:28;9.82;;;5.95;;
62423;SDS011;48463;43.604;3.872;2023-04-23T04:46:54;11.82;;;6.03;;
62423;SDS011;48463;43.604;3.872;2023-04-23T04:49:20;10.63;;;5.97;;
62423;SDS011;48463;43.604;3.872;2023-04-23T04:51:46;13.63;;;7.20;;
62423;SDS011;48463;43.604;3.872;2023-04-23T04:54:12;8.82;;;5.75;;
62423;SDS011;48463;43.604;3.872;2023-04-23T04:56:38;7.53;;;5.60;;
62423;SDS011;48463;43.604;3.872;2023-04-23T04:59:04;13.05;;;6.50;;
62423;SDS011;48463;43.604;3.872;2023-04-23T05:01:29;10.65;;;6.95;;
62423;SDS011;48463;43.604;3.872;2023-04-23T05:03:57;15.13;;;6.47;;
62423;SDS011;48463;43.604;3.872;2023-04-23T05:06:23;11.68;;;5.57;;
62423;SDS011;48463;43.604;3.872;2023-04-23T05:08:49;11.93;;;7.10;;
62423;SDS011;48463;43.604;3.872;2023-04-23T05:11:15;8.75;;;6.70;;
62423;SDS011;48463;43.604;3.872;2023-04-23T05:13:42;9.55;;;8.02;;
62423;SDS011;48463;43.604;3.872;2023-04-23T05:16:08;13.77;;;8.50;;
62423;SDS011;48463;43.604;3.872;2023-04-23T05:18:35;13.65;;;8.70;;
62423;SDS011;48463;43.604;3.872;2023-04-23T05:21:02;12.25;;;9.02;;
62423;SDS011;48463;43.604;3.872;2023-04-23T05:23:28;12.88;;;8.60;;
62423;SDS011;48463;43.604;3.872;2023-04-23T05:25:53;12.57;;;9.20;;
62423;SDS011;48463;43.604;3.872;2023-04-23T05:28:21;9.63;;;8.25;;
62423;SDS011;48463;43.604;3.872;2023-04-23T05:30:48;10.80;;;9.75;;
62423;SDS011;48463;43.604;3.872;2023-04-23T05:33:14;9.65;;;8.65;;
62423;SDS011;48463;43.604;3.872;2023-04-23T05:35:40;9.73;;;8.73;;
62423;SDS011;48463;43.604;3.872;2023-04-23T05:38:06;10.10;;;8.98;;
62423;SDS011;48463;43.604;3.872;2023-04-23T05:40:31;13.30;;;9.43;;
62423;SDS011;48463;43.604;3.872;2023-04-23T05:42:58;11.35;;;7.88;;
62423;SDS011;48463;43.604;3.872;2023-04-23T05:45:24;10.70;;;8.25;;
62423;SDS011;48463;43.604;3.872;2023-04-23T05:47:49;9.38;;;8.38;;
62423;SDS011;48463;43.604;3.872;2023-04-23T05:50:15;9.20;;;8.27;;
62423;SDS011;48463;43.604;3.872;2023-04-23T05:52:42;10.85;;;8.93;;
62423;SDS011;48463;43.604;3.872;2023-04-23T05:55:07;11.48;;;9.23;;
62423;SDS011;48463;43.604;3.872;2023-04-23T05:57:34;9.85;;;8.40;;
62423;SDS011;48463;43.604;3.872;2023-04-23T06:00:00;9.57;;;8.48;;
62423;SDS011;48463;43.604;3.872;2023-04-23T06:02:26;9.90;;;8.90;;
62423;SDS011;48463;43.604;3.872;2023-04-23T06:04:53;10.05;;;7.90;;
62423;SDS011;48463;43.604;3.872;2023-04-23T06:07:18;10.05;;;8.23;;
62423;SDS011;48463;43.604;3.872;2023-04-23T06:09:44;8.20;;;7.35;;
62423;SDS011;48463;43.604;3.872;2023-04-23T06:12:10;9.52;;;7.80;;
62423;SDS011;48463;43.604;3.872;2023-04-23T06:14:35;8.35;;;7.38;;
62423;SDS011;48463;43.604;3.872;2023-04-23T06:17:01;10.27;;;8.35;;
62423;SDS011;48463;43.604;3.872;2023-04-23T06:19:27;9.63;;;7.47;;
62423;SDS011;48463;43.604;3.872;2023-04-23T06:21:52;9.20;;;7.00;;
62423;SDS011;48463;43.604;3.872;2023-04-23T06:24:18;10.10;;;7.88;;
62423;SDS011;48463;43.604;3.872;2023-04-23T06:26:44;8.88;;;7.28;;
62423;SDS011;48463;43.604;3.872;2023-04-23T06:29:10;9.80;;;7.72;;
62423;SDS011;48463;43.604;3.872;2023-04-23T06:31:35;9.30;;;8.10;;
62423;SDS011;48463;43.604;3.872;2023-04-23T06:34:01;8.88;;;7.97;;
62423;SDS011;48463;43.604;3.872;2023-04-23T06:36:27;10.32;;;8.50;;
62423;SDS011;48463;43.604;3.872;2023-04-23T06:38:53;9.55;;;8.23;;
62423;SDS011;48463;43.604;3.872;2023-04-23T06:41:18;10.55;;;8.57;;
62423;SDS011;48463;43.604;3.872;2023-04-23T06:43:45;9.70;;;7.10;;
62423;SDS011;48463;43.604;3.872;2023-04-23T06:46:12;8.52;;;7.30;;
62423;SDS011;48463;43.604;3.872;2023-04-23T06:48:38;8.93;;;7.75;;
62423;SDS011;48463;43.604;3.872;2023-04-23T06:51:04;10.23;;;8.02;;
62423;SDS011;48463;43.604;3.872;2023-04-23T06:53:30;10.38;;;6.75;;
62423;SDS011;48463;43.604;3.872;2023-04-23T06:55:56;10.90;;;7.07;;
62423;SDS011;48463;43.604;3.872;2023-04-23T06:58:21;9.73;;;7.75;;
62423;SDS011;48463;43.604;3.872;2023-04-23T07:00:51;9.07;;;7.10;;
62423;SDS011;48463;43.604;3.872;2023-04-23T07:03:17;9.07;;;7.32;;
62423;SDS011;48463;43.604;3.872;2023-04-23T07:05:43;10.57;;;7.13;;
62423;SDS011;48463;43.604;3.872;2023-04-23T07:08:09;10.00;;;7.10;;
62423;SDS011;48463;43.604;3.872;2023-04-23T07:10:34;8.93;;;6.32;;
62423;SDS011;48463;43.604;3.872;2023-04-23T07:13:00;7.88;;;6.88;;
62423;SDS011;48463;43.604;3.872;2023-04-23T07:15:26;8.00;;;6.95;;
62423;SDS011;48463;43.604;3.872;2023-04-23T07:17:51;8.73;;;6.90;;
62423;SDS011;48463;43.604;3.872;2023-04-23T07:20:17;10.25;;;7.15;;
62423;SDS011;48463;43.604;3.872;2023-04-23T07:22:44;13.80;;;7.82;;
62423;SDS011;48463;43.604;3.872;2023-04-23T07:25:11;9.18;;;6.45;;
62423;SDS011;48463;43.604;3.872;2023-04-23T07:27:36;13.50;;;7.88;;
62423;SDS011;48463;43.604;3.872;2023-04-23T07:30:02;8.35;;;6.18;;
62423;SDS011;48463;43.604;3.872;2023-04-23T07:32:29;8.15;;;6.80;;
62423;SDS011;48463;43.604;3.872;2023-04-23T07:34:54;8.65;;;6.40;;
62423;SDS011;48463;43.604;3.872;2023-04-23T07:37:20;7.38;;;6.28;;
62423;SDS011;48463;43.604;3.872;2023-04-23T07:39:46;15.48;;;7.10;;
62423;SDS011;48463;43.604;3.872;2023-04-23T07:42:12;12.20;;;6.50;;
62423;SDS011;48463;43.604;3.872;2023-04-23T07:44:37;15.20;;;12.32;;
62423;SDS011;48463;43.604;3.872;2023-04-23T07:47:03;10.95;;;7.43;;
62423;SDS011;48463;43.604;3.872;2023-04-23T07:49:29;9.77;;;7.43;;
62423;SDS011;48463;43.604;3.872;2023-04-23T07:51:55;9.68;;;7.50;;
62423;SDS011;48463;43.604;3.872;2023-04-23T07:54:21;12.63;;;6.90;;
62423;SDS011;48463;43.604;3.872;2023-04-23T07:56:46;12.48;;;8.00;;
62423;SDS011;48463;43.604;3.872;2023-04-23T07:59:12;10.35;;;7.15;;
62423;SDS011;48463;43.604;3.872;2023-04-23T08:01:37;9.65;;;7.45;;
62423;SDS011;48463;43.604;3.872;2023-04-23T08:04:03;8.57;;;7.10;;
62423;SDS011;48463;43.604;3.872;2023-04-23T08:06:29;9.20;;;6.78;;
62423;SDS011;48463;43.604;3.872;2023-04-23T08:08:55;10.18;;;7.47;;
62423;SDS011;48463;43.604;3.872;2023-04-23T08:11:21;8.57;;;7.22;;
62423;SDS011;48463;43.604;3.872;2023-04-23T08:13:47;8.60;;;7.50;;
62423;SDS011;48463;43.604;3.872;2023-04-23T08:16:13;12.00;;;7.47;;
62423;SDS011;48463;43.604;3.872;2023-04-23T08:18:39;10.27;;;7.20;;
62423;SDS011;48463;43.604;3.872;2023-04-23T08:21:05;14.15;;;9.52;;
62423;SDS011;48463;43.604;3.872;2023-04-23T08:23:31;9.52;;;8.30;;
62423;SDS011;48463;43.604;3.872;2023-04-23T08:25:57;10.00;;;7.57;;
62423;SDS011;48463;43.604;3.872;2023-04-23T08:28:23;10.98;;;8.27;;
62423;SDS011;48463;43.604;3.872;2023-04-23T08:30:48;13.15;;;9.05;;
62423;SDS011;48463;43.604;3.872;2023-04-23T08:33:14;10.97;;;8.63;;
62423;SDS011;48463;43.604;3.872;2023-04-23T08:35:40;11.85;;;9.38;;
62423;SDS011;48463;43.604;3.872;2023-04-23T08:38:05;10.85;;;8.40;;
62423;SDS011;48463;43.604;3.872;2023-04-23T08:40:31;12.30;;;9.88;;
62423;SDS011;48463;43.604;3.872;2023-04-23T08:43:01;12.98;;;8.60;;
62423;SDS011;48463;43.604;3.872;2023-04-23T08:45:29;14.90;;;9.27;;
62423;SDS011;48463;43.604;3.872;2023-04-23T08:47:57;15.20;;;8.80;;
62423;SDS011;48463;43.604;3.872;2023-04-23T08:50:24;12.05;;;8.75;;
62423;SDS011;48463;43.604;3.872;2023-04-23T08:52:53;19.55;;;8.63;;
62423;SDS011;48463;43.604;3.872;2023-04-23T08:55:21;13.38;;;9.38;;
62423;SDS011;48463;43.604;3.872;2023-04-23T08:57:47;13.50;;;9.48;;
62423;SDS011;48463;43.604;3.872;2023-04-23T09:00:15;12.15;;;8.73;;
62423;SDS011;48463;43.604;3.872;2023-04-23T09:02:43;12.77;;;8.20;;
62423;SDS011;48463;43.604;3.872;2023-04-23T09:05:10;9.23;;;7.57;;
62423;SDS011;48463;43.604;3.872;2023-04-23T09:07:36;13.30;;;9.02;;
62423;SDS011;48463;43.604;3.872;2023-04-23T09:10:03;10.45;;;7.70;;
62423;SDS011;48463;43.604;3.872;2023-04-23T09:12:31;16.35;;;8.90;;
62423;SDS011;48463;43.604;3.872;2023-04-23T09:14:59;10.93;;;8.15;;
62423;SDS011;48463;43.604;3.872;2023-04-23T09:17:27;11.02;;;7.45;;
62423;SDS011;48463;43.604;3.872;2023-04-23T09:19:54;12.80;;;8.43;;
62423;SDS011;48463;43.604;3.872;2023-04-23T09:25:12;10.98;;;7.65;;
62423;SDS011;48463;43.604;3.872;2023-04-23T09:27:39;10.63;;;6.93;;
62423;SDS011;48463;43.604;3.872;2023-04-23T09:30:06;12.98;;;6.68;;
62423;SDS011;48463;43.604;3.872;2023-04-23T09:32:34;17.20;;;12.57;;
62423;SDS011;48463;43.604;3.872;2023-04-23T09:35:01;12.75;;;7.57;;
62423;SDS011;48463;43.604;3.872;2023-04-23T09:37:28;9.82;;;6.88;;
62423;SDS011;48463;43.604;3.872;2023-04-23T09:39:57;20.05;;;8.50;;
62423;SDS011;48463;43.604;3.872;2023-04-23T09:42:28;8.30;;;7.05;;
62423;SDS011;48463;43.604;3.872;2023-04-23T09:44:59;12.25;;;7.28;;
62423;SDS011;48463;43.604;3.872;2023-04-23T09:49:56;10.63;;;7.45;;
62423;SDS011;48463;43.604;3.872;2023-04-23T09:52:22;9.95;;;7.47;;
62423;SDS011;48463;43.604;3.872;2023-04-23T09:54:48;7.55;;;6.20;;
62423;SDS011;48463;43.604;3.872;2023-04-23T09:57:15;11.55;;;6.97;;
62423;SDS011;48463;43.604;3.872;2023-04-23T09:59:40;7.50;;;6.63;;
62423;SDS011;48463;43.604;3.872;2023-04-23T10:02:07;13.50;;;8.30;;
62423;SDS011;48463;43.604;3.872;2023-04-23T10:04:33;11.80;;;7.72;;
62423;SDS011;48463;43.604;3.872;2023-04-23T10:07:00;11.80;;;8.43;;
62423;SDS011;48463;43.604;3.872;2023-04-23T10:09:28;15.07;;;9.02;;
62423;SDS011;48463;43.604;3.872;2023-04-23T10:11:58;12.57;;;8.57;;
62423;SDS011;48463;43.604;3.872;2023-04-23T10:14:26;15.25;;;8.02;;
62423;SDS011;48463;43.604;3.872;2023-04-23T10:17:02;12.43;;;8.18;;
62423;SDS011;48463;43.604;3.872;2023-04-23T10:19:29;13.70;;;9.40;;
62423;SDS011;48463;43.604;3.872;2023-04-23T10:21:57;13.30;;;8.13;;
62423;SDS011;48463;43.604;3.872;2023-04-23T10:24:32;11.65;;;7.80;;
62423;SDS011;48463;43.604;3.872;2023-04-23T10:27:00;10.75;;;7.90;;
62423;SDS011;48463;43.604;3.872;2023-04-23T10:29:37;13.85;;;8.68;;
62423;SDS011;48463;43.604;3.872;2023-04-23T10:32:03;15.00;;;9.20;;
62423;SDS011;48463;43.604;3.872;2023-04-23T10:34:33;12.07;;;8.07;;
62423;SDS011;48463;43.604;3.872;2023-04-23T10:37:00;19.55;;;10.90;;
62423;SDS011;48463;43.604;3.872;2023-04-23T10:39:32;12.93;;;11.10;;
62423;SDS011;48463;43.604;3.872;2023-04-23T10:42:00;10.25;;;8.63;;
62423;SDS011;48463;43.604;3.872;2023-04-23T10:44:33;15.25;;;9.68;;
62423;SDS011;48463;43.604;3.872;2023-04-23T10:47:04;18.05;;;10.07;;
62423;SDS011;48463;43.604;3.872;2023-04-23T10:49:31;13.65;;;8.85;;
62423;SDS011;48463;43.604;3.872;2023-04-23T10:51:58;16.00;;;9.55;;
62423;SDS011;48463;43.604;3.872;2023-04-23T10:54:31;13.63;;;8.88;;
62423;SDS011;48463;43.604;3.872;2023-04-23T10:56:59;13.40;;;9.10;;
62423;SDS011;48463;43.604;3.872;2023-04-23T10:59:27;14.00;;;10.15;;
62423;SDS011;48463;43.604;3.872;2023-04-23T11:01:55;12.48;;;10.10;;
62423;SDS011;48463;43.604;3.872;2023-04-23T11:04:25;15.05;;;9.32;;
62423;SDS011;48463;43.604;3.872;2023-04-23T11:06:53;12.23;;;8.88;;
62423;SDS011;48463;43.604;3.872;2023-04-23T11:12:00;14.38;;;8.68;;
62423;SDS011;48463;43.604;3.872;2023-04-23T11:14:33;13.02;;;8.40;;
62423;SDS011;48463;43.604;3.872;2023-04-23T11:17:00;12.82;;;8.52;;
62423;SDS011;48463;43.604;3.872;2023-04-23T11:19:33;10.70;;;6.40;;
62423;SDS011;48463;43.604;3.872;2023-04-23T11:22:13;13.10;;;8.35;;
62423;SDS011;48463;43.604;3.872;2023-04-23T11:24:42;12.73;;;7.82;;
62423;SDS011;48463;43.604;3.872;2023-04-23T11:27:16;10.95;;;8.27;;
62423;SDS011;48463;43.604;3.872;2023-04-23T11:29:43;13.75;;;6.80;;
62423;SDS011;48463;43.604;3.872;2023-04-23T11:32:11;12.60;;;8.20;;
62423;SDS011;48463;43.604;3.872;2023-04-23T11:34:40;13.93;;;7.50;;
62423;SDS011;48463;43.604;3.872;2023-04-23T11:37:10;12.27;;;7.07;;
62423;SDS011;48463;43.604;3.872;2023-04-23T11:39:37;16.77;;;7.50;;
62423;SDS011;48463;43.604;3.872;2023-04-23T11:42:08;10.05;;;6.72;;
62423;SDS011;48463;43.604;3.872;2023-04-23T11:44:38;15.88;;;7.38;;
62423;SDS011;48463;43.604;3.872;2023-04-23T11:47:09;10.27;;;7.43;;
62423;SDS011;48463;43.604;3.872;2023-04-23T11:49:39;10.00;;;7.03;;
62423;SDS011;48463;43.604;3.872;2023-04-23T11:52:06;10.93;;;6.30;;
62423;SDS011;48463;43.604;3.872;2023-04-23T11:54:33;10.45;;;5.95;;
62423;SDS011;48463;43.604;3.872;2023-04-23T11:56:59;10.80;;;5.80;;
62423;SDS011;48463;43.604;3.872;2023-04-23T11:59:26;9.50;;;5.65;;
62423;SDS011;48463;43.604;3.872;2023-04-23T12:01:53;9.10;;;5.88;;
62423;SDS011;48463;43.604;3.872;2023-04-23T12:04:22;13.98;;;7.10;;
62423;SDS011;48463;43.604;3.872;2023-04-23T12:06:49;11.32;;;7.07;;
62423;SDS011;48463;43.604;3.872;2023-04-23T12:09:16;18.10;;;6.80;;
62423;SDS011;48463;43.604;3.872;2023-04-23T12:11:44;17.55;;;6.32;;
62423;SDS011;48463;43.604;3.872;2023-04-23T12:14:10;10.02;;;6.57;;
62423;SDS011;48463;43.604;3.872;2023-04-23T12:19:06;9.10;;;5.85;;
62423;SDS011;48463;43.604;3.872;2023-04-23T12:21:46;11.13;;;5.65;;
62423;SDS011;48463;43.604;3.872;2023-04-23T12:24:23;14.68;;;6.45;;
62423;SDS011;48463;43.604;3.872;2023-04-23T12:26:53;11.60;;;5.70;;
62423;SDS011;48463;43.604;3.872;2023-04-23T12:29:23;16.98;;;6.45;;
62423;SDS011;48463;43.604;3.872;2023-04-23T12:31:49;11.93;;;6.47;;
62423;SDS011;48463;43.604;3.872;2023-04-23T12:34:17;10.75;;;6.60;;
62423;SDS011;48463;43.604;3.872;2023-04-23T12:36:54;16.77;;;7.40;;
62423;SDS011;48463;43.604;3.872;2023-04-23T12:41:57;12.38;;;5.68;;
62423;SDS011;48463;43.604;3.872;2023-04-23T12:44:25;14.10;;;5.80;;
62423;SDS011;48463;43.604;3.872;2023-04-23T12:46:55;9.25;;;5.53;;
62423;SDS011;48463;43.604;3.872;2023-04-23T12:49:22;15.52;;;5.65;;
62423;SDS011;48463;43.604;3.872;2023-04-23T12:51:48;10.27;;;5.40;;
62423;SDS011;48463;43.604;3.872;2023-04-23T12:54:14;9.02;;;4.75;;
62423;SDS011;48463;43.604;3.872;2023-04-23T12:56:40;12.82;;;6.75;;
62423;SDS011;48463;43.604;3.872;2023-04-23T12:59:05;10.43;;;5.85;;
62423;SDS011;48463;43.604;3.872;2023-04-23T13:01:32;12.20;;;5.72;;
62423;SDS011;48463;43.604;3.872;2023-04-23T13:03:57;9.82;;;5.32;;
62423;SDS011;48463;43.604;3.872;2023-04-23T13:06:23;11.90;;;5.85;;
62423;SDS011;48463;43.604;3.872;2023-04-23T13:08:50;12.20;;;6.43;;
62423;SDS011;48463;43.604;3.872;2023-04-23T13:11:16;8.50;;;5.40;;
62423;SDS011;48463;43.604;3.872;2023-04-23T13:13:42;10.73;;;5.30;;
62423;SDS011;48463;43.604;3.872;2023-04-23T13:16:07;16.08;;;5.72;;
62423;SDS011;48463;43.604;3.872;2023-04-23T13:18:33;7.35;;;5.00;;
62423;SDS011;48463;43.604;3.872;2023-04-23T13:20:59;11.40;;;5.13;;
62423;SDS011;48463;43.604;3.872;2023-04-23T13:23:25;16.73;;;5.28;;
62423;SDS011;48463;43.604;3.872;2023-04-23T13:25:50;10.30;;;5.50;;
62423;SDS011;48463;43.604;3.872;2023-04-23T13:28:16;12.65;;;5.20;;
62423;SDS011;48463;43.604;3.872;2023-04-23T13:30:41;9.30;;;4.55;;
62423;SDS011;48463;43.604;3.872;2023-04-23T13:33:07;16.85;;;6.80;;
62423;SDS011;48463;43.604;3.872;2023-04-23T13:35:33;8.23;;;5.43;;
62423;SDS011;48463;43.604;3.872;2023-04-23T13:38:01;9.32;;;4.93;;
62423;SDS011;48463;43.604;3.872;2023-04-23T13:40:27;10.63;;;6.05;;
62423;SDS011;48463;43.604;3.872;2023-04-23T13:42:53;10.75;;;5.93;;
62423;SDS011;48463;43.604;3.872;2023-04-23T13:45:19;11.43;;;4.95;;
62423;SDS011;48463;43.604;3.872;2023-04-23T13:47:45;13.80;;;5.32;;
62423;SDS011;48463;43.604;3.872;2023-04-23T13:50:10;8.05;;;5.50;;
62423;SDS011;48463;43.604;3.872;2023-04-23T13:52:36;14.73;;;5.53;;
62423;SDS011;48463;43.604;3.872;2023-04-23T13:55:03;14.65;;;5.90;;
62423;SDS011;48463;43.604;3.872;2023-04-23T13:57:31;8.25;;;5.28;;
62423;SDS011;48463;43.604;3.872;2023-04-23T13:59:57;13.50;;;4.82;;
62423;SDS011;48463;43.604;3.872;2023-04-23T14:02:24;12.65;;;5.30;;
62423;SDS011;48463;43.604;3.872;2023-04-23T14:04:50;9.32;;;5.20;;
62423;SDS011;48463;43.604;3.872;2023-04-23T14:07:16;19.13;;;6.18;;
62423;SDS011;48463;43.604;3.872;2023-04-23T14:09:42;13.00;;;6.35;;
62423;SDS011;48463;43.604;3.872;2023-04-23T14:12:10;10.63;;;6.35;;
62423;SDS011;48463;43.604;3.872;2023-04-23T14:14:36;11.88;;;6.70;;
62423;SDS011;48463;43.604;3.872;2023-04-23T14:17:02;14.43;;;6.13;;
62423;SDS011;48463;43.604;3.872;2023-04-23T14:19:27;17.67;;;7.28;;
62423;SDS011;48463;43.604;3.872;2023-04-23T14:21:54;16.63;;;6.70;;
62423;SDS011;48463;43.604;3.872;2023-04-23T14:24:27;9.70;;;6.35;;
62423;SDS011;48463;43.604;3.872;2023-04-23T14:26:57;20.73;;;7.70;;
62423;SDS011;48463;43.604;3.872;2023-04-23T14:29:29;15.68;;;8.88;;
62423;SDS011;48463;43.604;3.872;2023-04-23T14:32:00;11.80;;;8.73;;
62423;SDS011;48463;43.604;3.872;2023-04-23T14:34:26;11.75;;;7.32;;
62423;SDS011;48463;43.604;3.872;2023-04-23T14:36:52;17.73;;;7.45;;
62423;SDS011;48463;43.604;3.872;2023-04-23T14:39:18;14.35;;;6.75;;
62423;SDS011;48463;43.604;3.872;2023-04-23T14:41:45;8.20;;;3.58;;
62423;SDS011;48463;43.604;3.872;2023-04-23T14:44:11;8.77;;;4.25;;
62423;SDS011;48463;43.604;3.872;2023-04-23T14:46:36;11.35;;;4.38;;